Time;durP1;ratioP1;P1;durP2;ratioP2;P2;SDS_P1;SDS_P2;PMS_P1;PMS_P2;Temp;Humidity;BMP_temperature;BMP_pressure;BME280_temperature;BME280_humidity;BME280_pressure;Samples;Min_cycle;Max_cycle;Signal;HPM_P1;HPM_P2
2022/04/02 00:02:09;;;;;;;4.87;2.60;;;-1.20;78.10;;;;;;5054461;28;20636;-81
2022/04/02 00:04:36;;;;;;;4.13;2.73;;;-1.20;96.70;;;;;;5054894;28;20204;-81
2022/04/02 00:07:03;;;;;;;7.77;2.90;;;-1.20;99.90;;;;;;5055008;28;20196;-81
2022/04/02 00:09:31;;;;;;;4.70;2.47;;;-1.20;99.90;;;;;;5068590;28;20689;-81
2022/04/02 00:11:59;;;;;;;4.03;2.87;;;-1.30;99.90;;;;;;5054506;28;20259;-80
2022/04/02 00:14:26;;;;;;;3.70;2.17;;;-1.30;99.90;;;;;;5054513;28;20201;-81
2022/04/02 00:16:53;;;;;;;6.90;2.80;;;-1.30;99.90;;;;;;5054142;28;20616;-81
2022/04/02 00:19:21;;;;;;;5.13;2.40;;;-1.30;99.90;;;;;;5071131;28;20192;-81
2022/04/02 00:21:48;;;;;;;4.07;2.20;;;-1.30;99.90;;;;;;5074402;28;20196;-81
2022/04/02 00:24:15;;;;;;;4.73;2.53;;;-1.30;99.90;;;;;;5074469;28;20265;-81
2022/04/02 00:26:43;;;;;;;5.07;2.50;;;-1.30;99.90;;;;;;5072586;28;20245;-81
2022/04/02 00:29:11;;;;;;;4.27;2.23;;;-1.30;99.90;;;;;;5073952;28;20716;-81
2022/04/02 00:31:40;;;;;;;6.93;2.80;;;-1.40;99.90;;;;;;5074172;28;20219;-81
2022/04/02 00:34:08;;;;;;;7.73;3.10;;;-1.30;99.90;;;;;;5074314;28;20195;-81
2022/04/02 00:36:37;;;;;;;6.77;2.80;;;-1.30;99.90;;;;;;5074404;28;20192;-81
2022/04/02 00:39:06;;;;;;;5.73;2.80;;;-1.40;99.90;;;;;;5073944;28;20239;-81
2022/04/02 00:41:33;;;;;;;5.47;2.83;;;-1.40;99.90;;;;;;5073959;28;20282;-81
2022/04/02 00:44:09;;;;;;;5.03;2.60;;;-1.40;99.90;;;;;;5073640;28;20199;-81
2022/04/02 00:46:37;;;;;;;6.93;3.47;;;-1.40;99.90;;;;;;5074330;28;20187;-82
2022/04/02 00:49:05;;;;;;;5.03;2.43;;;-1.40;99.90;;;;;;5073807;28;20253;-81
2022/04/02 00:51:33;;;;;;;4.97;3.00;;;-1.40;99.90;;;;;;5073757;28;20216;-81
2022/04/02 00:54:00;;;;;;;5.43;3.10;;;-1.30;99.90;;;;;;5073769;28;20656;-81
2022/04/02 00:56:29;;;;;;;6.10;2.67;;;-1.40;99.90;;;;;;5069289;28;20189;-81
2022/04/02 00:58:56;;;;;;;5.60;2.50;;;-1.40;99.90;;;;;;5053739;28;20200;-82
2022/04/02 01:01:24;;;;;;;7.40;3.20;;;-1.40;99.90;;;;;;5053295;28;20200;-82
2022/04/02 01:03:51;;;;;;;4.17;2.83;;;-1.40;99.90;;;;;;5053726;28;20230;-81
2022/04/02 01:06:18;;;;;;;5.47;3.23;;;-1.40;99.90;;;;;;5053428;28;20203;-81
2022/04/02 01:08:46;;;;;;;10.07;2.60;;;-1.30;99.90;;;;;;5053180;28;20193;-81
2022/04/02 01:11:13;;;;;;;9.43;3.03;;;-1.30;99.90;;;;;;5053667;28;20231;-81
2022/04/02 01:13:40;;;;;;;4.77;2.67;;;-1.30;99.90;;;;;;5061133;28;20274;-82
2022/04/02 01:16:08;;;;;;;5.33;3.10;;;-1.30;99.90;;;;;;5073264;28;20200;-82
2022/04/02 01:18:36;;;;;;;5.70;2.47;;;-1.30;99.90;;;;;;5073227;28;20194;-82
2022/04/02 01:21:03;;;;;;;5.90;3.40;;;-1.30;99.90;;;;;;5071664;28;20204;-82
2022/04/02 01:23:32;;;;;;;5.77;2.90;;;-1.30;99.90;;;;;;5053240;28;20714;-82
2022/04/02 01:26:01;;;;;;;9.10;3.00;;;-1.30;99.90;;;;;;5053171;28;20192;-81
2022/04/02 01:28:33;;;;;;;6.87;2.97;;;-1.30;1.00;;;;;;5052792;28;20250;-81
2022/04/02 01:31:02;;;;;;;5.40;2.43;;;-1.30;99.90;;;;;;5052845;28;20235;-81
2022/04/02 01:33:29;;;;;;;5.47;2.63;;;-1.30;99.90;;;;;;5052736;28;20280;-82
2022/04/02 01:36:01;;;;;;;5.57;2.90;;;-1.30;1.00;;;;;;5052721;28;20535;-82
2022/04/02 01:38:29;;;;;;;3.70;2.33;;;-1.30;1.00;;;;;;5052665;28;20189;-82
2022/04/02 01:40:58;;;;;;;6.37;2.70;;;-1.30;1.00;;;;;;5052975;28;20197;-82
2022/04/02 01:43:25;;;;;;;6.57;2.90;;;-1.30;1.00;;;;;;5052947;28;20193;-82
2022/04/02 01:45:56;;;;;;;5.37;2.47;;;-1.30;1.00;;;;;;5052824;28;20238;-82
2022/04/02 01:48:23;;;;;;;7.73;2.47;;;-1.40;1.00;;;;;;5052466;28;20653;-81
2022/04/02 01:50:51;;;;;;;5.47;2.77;;;-1.30;1.00;;;;;;5052681;28;20246;-81
2022/04/02 01:53:18;;;;;;;3.90;2.40;;;-1.40;1.00;;;;;;5070783;28;20199;-81
2022/04/02 01:55:46;;;;;;;5.63;2.83;;;-1.30;1.00;;;;;;5072300;28;20257;-81
2022/04/02 01:58:15;;;;;;;6.93;2.53;;;-1.40;1.00;;;;;;5072363;28;20191;-81
2022/04/02 02:00:42;;;;;;;7.40;2.67;;;-1.30;99.90;;;;;;5072824;28;20196;-82
2022/04/02 02:03:09;;;;;;;3.87;2.37;;;-1.40;99.90;;;;;;5072840;28;20207;-82
2022/04/02 02:05:36;;;;;;;6.23;2.70;;;-1.40;99.90;;;;;;5072256;28;20533;-81
2022/04/02 02:08:04;;;;;;;5.37;2.87;;;-1.40;1.00;;;;;;5072211;28;20725;-81
2022/04/02 02:10:32;;;;;;;5.27;2.70;;;-1.40;99.90;;;;;;5072133;28;20845;-81
2022/04/02 02:12:59;;;;;;;6.10;2.50;;;-1.40;1.00;;;;;;5071231;28;20573;-81
2022/04/02 02:15:28;;;;;;;5.97;2.70;;;-1.40;1.00;;;;;;5072116;28;20191;-81
2022/04/02 02:17:55;;;;;;;7.13;2.33;;;-1.40;1.00;;;;;;5072048;28;20195;-81
2022/04/02 02:20:22;;;;;;;6.87;2.83;;;-1.40;1.00;;;;;;5072421;28;20192;-81
2022/04/02 02:22:50;;;;;;;9.73;2.77;;;-1.40;1.00;;;;;;5072040;28;20196;-81
2022/04/02 02:25:19;;;;;;;5.70;2.57;;;-1.40;1.00;;;;;;5071985;28;20636;-82
2022/04/02 02:27:47;;;;;;;6.13;2.60;;;-1.40;1.00;;;;;;5072321;28;20192;-82
2022/04/02 02:30:15;;;;;;;5.80;2.20;;;-1.50;1.00;;;;;;5072005;28;20563;-81
2022/04/02 02:32:45;;;;;;;5.90;3.10;;;-1.50;1.00;;;;;;5074865;28;20615;-83
2022/04/02 02:38:06;;;;;;;4.97;2.60;;;-1.50;1.00;;;;;;5076154;28;20222;-82
2022/04/02 02:40:33;;;;;;;5.23;2.60;;;-1.50;1.00;;;;;;5076471;28;20186;-82
2022/04/02 02:43:00;;;;;;;5.83;2.80;;;-1.50;1.00;;;;;;5072086;28;20192;-82
2022/04/02 02:45:27;;;;;;;6.93;2.40;;;-1.50;1.00;;;;;;5055952;28;20227;-82
2022/04/02 02:47:56;;;;;;;5.03;2.57;;;-1.50;1.00;;;;;;5055928;28;20606;-82
2022/04/02 02:50:23;;;;;;;7.87;2.60;;;-1.50;1.00;;;;;;5055827;28;20192;-82
2022/04/02 02:52:50;;;;;;;4.87;2.40;;;-1.60;1.00;;;;;;5055982;28;20254;-82
2022/04/02 02:55:18;;;;;;;4.20;2.37;;;-1.60;1.00;;;;;;5055779;28;20677;-81
2022/04/02 02:57:46;;;;;;;4.20;2.30;;;-1.60;1.00;;;;;;5055751;28;20254;-82
2022/04/02 03:00:15;;;;;;;3.60;2.13;;;-1.60;1.00;;;;;;5056996;28;20200;-82
2022/04/02 03:02:42;;;;;;;8.53;3.33;;;-1.60;1.00;;;;;;5075746;28;20660;-82
2022/04/02 03:05:12;;;;;;;7.83;2.20;;;-1.60;1.00;;;;;;5075552;28;20661;-82
2022/04/02 03:07:41;;;;;;;5.17;2.63;;;-1.60;1.00;;;;;;5075624;28;20718;-82
2022/04/02 03:10:09;;;;;;;8.00;3.07;;;-1.60;1.00;;;;;;5075730;28;20324;-81
2022/04/02 03:12:36;;;;;;;6.30;2.67;;;-1.60;1.00;;;;;;5075681;28;20215;-82
2022/04/02 03:15:04;;;;;;;5.20;2.83;;;-1.60;1.00;;;;;;5074900;28;20676;-82
2022/04/02 03:17:32;;;;;;;7.10;2.40;;;-1.60;1.00;;;;;;5075689;28;20195;-82
2022/04/02 03:20:00;;;;;;;5.10;2.60;;;-1.60;1.00;;;;;;5075258;28;20207;-82
2022/04/02 03:22:28;;;;;;;8.13;2.80;;;-1.60;1.00;;;;;;5075223;28;20202;-82
2022/04/02 03:24:55;;;;;;;7.57;2.77;;;-1.60;1.00;;;;;;5075455;28;20523;-82
2022/04/02 03:27:22;;;;;;;7.80;3.70;;;-1.60;1.00;;;;;;5075465;28;20196;-82
2022/04/02 03:29:49;;;;;;;9.23;3.67;;;-1.60;1.00;;;;;;5075047;28;20652;-82
2022/04/02 03:32:16;;;;;;;9.90;3.80;;;-1.60;1.00;;;;;;5075507;28;20216;-82
2022/04/02 03:34:43;;;;;;;3.67;2.47;;;-1.60;1.00;;;;;;5075547;28;20241;-82
2022/04/02 03:37:13;;;;;;;6.03;3.20;;;-1.60;1.00;;;;;;5075278;28;20207;-81
2022/04/02 03:39:41;;;;;;;7.73;3.00;;;-1.60;1.00;;;;;;5074966;28;20656;-82
2022/04/02 03:42:09;;;;;;;8.40;3.47;;;-1.60;1.00;;;;;;5075182;28;20277;-82
2022/04/02 03:44:36;;;;;;;6.03;3.13;;;-1.60;1.00;;;;;;5060760;28;20185;-82
2022/04/02 03:47:10;;;;;;;5.27;3.00;;;-1.60;1.00;;;;;;5054734;28;20219;-82
2022/04/02 03:49:38;;;;;;;5.43;2.70;;;-1.60;1.00;;;;;;5055145;28;20246;-82
2022/04/02 03:52:06;;;;;;;7.97;2.60;;;-1.60;1.00;;;;;;5058940;28;20683;-82
2022/04/02 03:54:35;;;;;;;6.13;2.40;;;-1.60;1.00;;;;;;5074694;28;20601;-82
2022/04/02 03:57:04;;;;;;;5.47;2.77;;;-1.60;1.00;;;;;;5074893;28;20192;-82
2022/04/02 03:59:32;;;;;;;8.47;2.90;;;-1.60;1.00;;;;;;5074577;28;20198;-82
2022/04/02 04:01:59;;;;;;;6.10;2.97;;;-1.60;1.00;;;;;;5074791;28;20282;-82
2022/04/02 04:04:27;;;;;;;6.63;3.03;;;-1.60;1.00;;;;;;5074508;28;20595;-81
2022/04/02 04:06:56;;;;;;;5.93;2.70;;;-1.60;1.00;;;;;;5074716;28;20200;-82
2022/04/02 04:09:23;;;;;;;6.27;2.40;;;-1.60;1.00;;;;;;5074553;28;20224;-82
2022/04/02 04:11:50;;;;;;;4.80;3.00;;;-1.60;1.00;;;;;;5074583;28;20192;-82
2022/04/02 04:14:20;;;;;;;6.60;3.07;;;-1.60;1.00;;;;;;5063487;28;20586;-82
2022/04/02 04:16:47;;;;;;;9.17;7.07;;;-1.60;1.00;;;;;;5054739;28;20276;-82
2022/04/02 04:19:14;;;;;;;7.73;2.93;;;-1.70;1.00;;;;;;5054746;28;20622;-82
2022/04/02 04:21:42;;;;;;;6.60;3.13;;;-1.70;1.00;;;;;;5054498;28;20199;-82
2022/04/02 04:24:10;;;;;;;8.00;2.83;;;-1.70;1.00;;;;;;5054365;28;20193;-82
2022/04/02 04:26:38;;;;;;;6.20;2.67;;;-1.70;1.00;;;;;;5054019;28;20258;-82
2022/04/02 04:29:05;;;;;;;5.57;2.70;;;-1.70;1.00;;;;;;5053955;28;20661;-82
2022/04/02 04:31:34;;;;;;;5.97;2.77;;;-1.70;1.00;;;;;;5054293;28;20193;-82
2022/04/02 04:34:02;;;;;;;7.10;3.10;;;-1.70;1.00;;;;;;5054095;28;20209;-82
2022/04/02 04:36:30;;;;;;;7.97;3.47;;;-1.70;1.00;;;;;;5054262;28;20196;-82
2022/04/02 04:38:58;;;;;;;6.07;3.10;;;-1.70;1.00;;;;;;5053762;28;20287;-82
2022/04/02 04:41:25;;;;;;;7.60;3.10;;;-1.70;1.00;;;;;;5053779;28;20646;-82
2022/04/02 04:43:53;;;;;;;6.40;2.53;;;-1.60;1.00;;;;;;5059828;28;20271;-82
2022/04/02 04:46:21;;;;;;;8.20;3.23;;;-1.60;1.00;;;;;;5073658;28;20242;-82
2022/04/02 04:48:49;;;;;;;3.93;2.13;;;-1.70;1.00;;;;;;5073915;28;20188;-83
2022/04/02 04:51:18;;;;;;;6.47;2.87;;;-1.60;1.00;;;;;;5073777;28;20559;-82
2022/04/02 04:53:46;;;;;;;4.83;2.93;;;-1.50;1.00;;;;;;5073549;28;20266;-82
2022/04/02 04:56:13;;;;;;;5.70;3.03;;;-1.50;1.00;;;;;;5072632;28;20283;-82
2022/04/02 04:58:40;;;;;;;5.63;2.80;;;-1.40;1.00;;;;;;5073763;28;20206;-82
2022/04/02 05:01:08;;;;;;;6.50;2.47;;;-1.30;1.00;;;;;;5073335;28;20192;-82
2022/04/02 05:03:36;;;;;;;4.27;2.53;;;-1.20;1.00;;;;;;5073286;28;20291;-82
2022/04/02 05:06:06;;;;;;;7.57;2.97;;;-1.10;1.00;;;;;;5073213;28;20203;-82
2022/04/02 05:08:34;;;;;;;7.63;2.80;;;-1.00;1.00;;;;;;5073554;28;20282;-82
2022/04/02 05:11:01;;;;;;;3.80;2.20;;;-0.90;1.00;;;;;;5073484;28;20227;-82
2022/04/02 05:13:29;;;;;;;6.53;2.70;;;-0.80;1.00;;;;;;5070143;28;20261;-82
2022/04/02 05:15:56;;;;;;;4.30;2.63;;;-0.70;1.00;;;;;;5053132;28;20232;-82
2022/04/02 05:18:23;;;;;;;4.87;2.20;;;-0.60;1.00;;;;;;5053402;28;20192;-82
2022/04/02 05:20:51;;;;;;;4.60;2.50;;;-0.40;1.00;;;;;;5053305;28;20275;-82
2022/04/02 05:23:19;;;;;;;7.17;2.83;;;-0.20;1.00;;;;;;5053234;28;20200;-82
2022/04/02 05:25:46;;;;;;;7.43;2.33;;;0.10;1.00;;;;;;5053487;28;20200;-82
2022/04/02 05:28:13;;;;;;;3.83;2.30;;;0.60;57.20;;;;;;5053135;28;20557;-82
2022/04/02 05:30:40;;;;;;;5.90;2.20;;;1.10;1.00;;;;;;5053153;28;20196;-82
2022/04/02 05:33:08;;;;;;;3.63;1.90;;;1.70;1.00;;;;;;5052998;28;20219;-82
2022/04/02 05:35:35;;;;;;;2.80;1.93;;;2.30;1.00;;;;;;5053123;28;20196;-82
2022/04/02 05:38:02;;;;;;;3.30;2.00;;;2.80;1.00;;;;;;5052927;28;20208;-82
2022/04/02 05:40:31;;;;;;;5.40;1.97;;;3.20;1.00;;;;;;5052977;28;20245;-82
2022/04/02 05:42:58;;;;;;;5.17;2.00;;;3.60;99.90;;;;;;5052561;28;20200;-82
2022/04/02 05:45:25;;;;;;;5.37;2.00;;;4.10;99.90;;;;;;5072520;28;20246;-82
2022/04/02 05:47:53;;;;;;;5.30;1.80;;;4.50;99.90;;;;;;5072503;28;20648;-81
2022/04/02 05:50:23;;;;;;;3.10;2.00;;;5.00;99.90;;;;;;5072699;28;20202;-82
2022/04/02 05:52:51;;;;;;;6.33;1.87;;;5.40;99.90;;;;;;5072410;28;20216;-82
2022/04/02 05:55:18;;;;;;;2.67;1.83;;;5.90;99.90;;;;;;5072951;28;20220;-82
2022/04/02 05:57:48;;;;;;;5.30;1.77;;;6.40;4.90;;;;;;5072948;28;20245;-82
2022/04/02 06:00:17;;;;;;;3.93;1.63;;;6.90;1.00;;;;;;5072656;28;20202;-82
2022/04/02 06:02:45;;;;;;;4.07;2.00;;;7.30;1.00;;;;;;5072635;28;20204;-82
2022/04/02 06:05:13;;;;;;;3.97;2.00;;;7.60;1.00;;;;;;5072578;28;20250;-82
2022/04/02 06:07:41;;;;;;;2.30;1.60;;;7.90;1.00;;;;;;5072299;28;20200;-82
2022/04/02 06:10:10;;;;;;;5.27;2.33;;;8.40;1.00;;;;;;5072031;28;20318;-82
2022/04/02 06:12:38;;;;;;;2.77;1.87;;;8.80;1.00;;;;;;5072436;28;20216;-82
2022/04/02 06:15:09;;;;;;;4.80;1.97;;;9.20;1.00;;;;;;5054466;28;20193;-80
2022/04/02 06:17:36;;;;;;;2.50;1.70;;;9.30;1.00;;;;;;5052571;28;20185;-80
2022/04/02 06:20:05;;;;;;;5.60;1.90;;;9.60;1.00;;;;;;5052003;28;20201;-80
2022/04/02 06:22:32;;;;;;;3.70;1.80;;;9.80;1.00;;;;;;5052275;28;20185;-80
2022/04/02 06:24:59;;;;;;;4.33;1.90;;;10.10;1.00;;;;;;5052235;28;20285;-80
2022/04/02 06:27:26;;;;;;;5.77;1.83;;;10.40;1.00;;;;;;5051952;28;20244;-80
2022/04/02 06:29:53;;;;;;;3.73;1.70;;;10.40;1.00;;;;;;5051969;28;20589;-81
2022/04/02 06:32:22;;;;;;;2.50;1.60;;;10.50;1.00;;;;;;5052446;28;20202;-81
2022/04/02 06:34:49;;;;;;;3.67;1.80;;;10.80;1.00;;;;;;5052397;28;20561;-81
2022/04/02 06:37:16;;;;;;;3.13;1.70;;;11.00;1.00;;;;;;5052210;28;20257;-81
2022/04/02 06:39:43;;;;;;;2.80;1.83;;;11.00;1.00;;;;;;5051881;28;20193;-81
2022/04/02 06:42:11;;;;;;;4.10;1.97;;;10.90;1.00;;;;;;5051902;28;20195;-80
2022/04/02 06:44:38;;;;;;;3.30;1.70;;;10.90;1.00;;;;;;5067582;28;20665;-81
2022/04/02 06:47:06;;;;;;;4.60;2.00;;;11.00;1.00;;;;;;5071787;28;20202;-81
2022/04/02 06:49:34;;;;;;;4.53;1.90;;;10.90;1.00;;;;;;5071792;28;20205;-81
2022/04/02 06:52:01;;;;;;;4.20;1.90;;;10.80;1.00;;;;;;5063186;28;20197;-81
2022/04/02 06:54:28;;;;;;;3.43;1.70;;;10.70;1.00;;;;;;5051666;28;20277;-81
2022/04/02 06:56:57;;;;;;;4.23;1.83;;;10.60;1.00;;;;;;5051471;28;20603;-81
2022/04/02 06:59:24;;;;;;;2.77;1.60;;;10.60;1.00;;;;;;5051548;28;20231;-81
2022/04/02 07:01:51;;;;;;;2.77;1.53;;;10.80;1.00;;;;;;5052060;28;20197;-82
2022/04/02 07:04:19;;;;;;;4.20;1.80;;;11.10;1.00;;;;;;5052253;28;20208;-82
2022/04/02 07:06:47;;;;;;;3.80;2.17;;;11.50;1.00;;;;;;5051609;28;20192;-81
2022/04/02 07:09:15;;;;;;;3.30;1.80;;;11.60;1.00;;;;;;5054796;28;20197;-83
2022/04/02 07:11:43;;;;;;;35.07;4.13;;;11.60;1.00;;;;;;5064525;28;20338;-83
2022/04/02 07:14:10;;;;;;;20.07;2.90;;;11.40;1.00;;;;;;5051610;28;20228;-82
2022/04/02 07:16:38;;;;;;;4.43;1.80;;;11.30;1.00;;;;;;5071555;28;20279;-82
2022/04/02 07:19:06;;;;;;;3.77;1.90;;;11.20;1.00;;;;;;5073041;28;20286;-82
2022/04/02 07:21:35;;;;;;;4.20;1.63;;;11.00;1.00;;;;;;5060097;28;20194;-83
2022/04/02 07:24:03;;;;;;;2.90;1.80;;;11.00;1.00;;;;;;5055221;28;20328;-83
2022/04/02 07:26:32;;;;;;;4.80;2.00;;;10.90;1.00;;;;;;5055503;28;20253;-82
2022/04/02 07:29:00;;;;;;;3.47;2.87;;;10.70;1.00;;;;;;5055172;28;20281;-82
2022/04/02 07:31:27;;;;;;;1.83;1.40;;;10.70;1.00;;;;;;5055351;28;20277;-82
2022/04/02 07:33:54;;;;;;;3.03;1.70;;;10.70;1.00;;;;;;5055374;28;20269;-83
2022/04/02 07:36:30;;;;;;;8.50;2.10;;;11.00;1.00;;;;;;5055153;28;20654;-82
2022/04/02 07:39:02;;;;;;;5.77;1.90;;;11.20;1.00;;;;;;5055285;28;20184;-82
2022/04/02 07:41:38;;;;;;;3.77;1.80;;;11.20;1.00;;;;;;5055241;28;20180;-82
2022/04/02 07:44:17;;;;;;;5.93;1.93;;;11.10;1.00;;;;;;5055094;28;20195;-82
2022/04/02 07:46:47;;;;;;;7.03;2.00;;;11.00;1.00;;;;;;5055132;28;20562;-82
2022/04/02 07:49:20;;;;;;;10.93;2.10;;;10.90;1.00;;;;;;5054973;28;20268;-82
2022/04/02 07:51:52;;;;;;;5.13;2.00;;;10.80;1.00;;;;;;5056621;28;20591;-82
2022/04/02 07:54:21;;;;;;;19.43;2.97;;;10.80;1.00;;;;;;5058491;28;20697;-80
2022/04/02 07:56:52;;;;;;;4.50;1.83;;;10.90;1.00;;;;;;5063273;28;20646;-81
2022/04/02 07:59:27;;;;;;;3.90;1.80;;;10.80;1.00;;;;;;5063056;28;20250;-82
2022/04/02 08:01:56;;;;;;;3.60;1.87;;;10.80;1.00;;;;;;5054995;28;20285;-81
2022/04/02 08:04:27;;;;;;;4.73;1.70;;;10.70;1.00;;;;;;5067411;28;20202;-84
2022/04/02 08:06:55;;;;;;;22.67;2.87;;;10.80;1.00;;;;;;5062413;28;20195;-84
2022/04/02 08:09:22;;;;;;;18.07;2.80;;;11.00;1.00;;;;;;5069816;28;20288;-85
2022/04/02 08:11:52;;;;;;;6.10;1.90;;;11.00;1.00;;;;;;5068804;28;20763;-85
2022/04/02 08:14:21;;;;;;;3.20;1.70;;;11.00;1.00;;;;;;5068358;28;20271;-84
2022/04/02 08:16:50;;;;;;;2.47;1.60;;;11.00;1.00;;;;;;5070073;28;20197;-84
2022/04/02 08:19:23;;;;;;;4.90;1.43;;;10.90;1.00;;;;;;5071229;28;20204;-84
2022/04/02 08:21:50;;;;;;;4.73;1.60;;;11.00;1.00;;;;;;5067751;28;20186;-85
2022/04/02 08:24:17;;;;;;;5.33;2.57;;;10.90;1.00;;;;;;5070328;28;20641;-83
2022/04/02 08:26:56;;;;;;;32.03;3.80;;;10.90;1.00;;;;;;5060142;28;20599;-86
2022/04/02 08:29:34;;;;;;;20.97;2.43;;;11.00;1.00;;;;;;5070648;28;20183;-86
2022/04/02 08:32:10;;;;;;;6.97;2.10;;;11.10;1.00;;;;;;5063946;28;20233;-83
2022/04/02 08:34:58;;;;;;;7.93;2.20;;;11.10;1.00;;;;;;5068264;28;20204;-83
2022/04/02 08:37:29;;;;;;;4.93;2.10;;;11.10;1.00;;;;;;5071559;28;20190;-84
2022/04/02 08:40:18;;;;;;;4.00;1.87;;;11.00;1.00;;;;;;5068503;28;20193;-83
2022/04/02 08:43:24;;;;;;;2.53;1.77;;;11.00;1.00;;;;;;5070433;28;20582;-81
2022/04/02 08:45:58;;;;;;;4.67;2.23;;;11.20;1.00;;;;;;5017710;28;20238;-80
2022/04/02 08:48:27;;;;;;;3.53;2.00;;;11.30;1.00;;;;;;5059657;28;20215;-85
2022/04/02 08:51:14;;;;;;;5.47;2.00;;;11.50;1.00;;;;;;5070574;28;20193;-85
2022/04/02 08:53:54;;;;;;;4.57;2.30;;;11.80;1.00;;;;;;5071741;28;20283;-84
2022/04/02 08:56:25;;;;;;;3.13;1.90;;;12.20;1.00;;;;;;5073467;28;20187;-84
2022/04/02 08:59:01;;;;;;;4.57;1.93;;;12.60;1.00;;;;;;5073740;28;20286;-84
2022/04/02 09:01:31;;;;;;;7.67;2.07;;;12.60;1.00;;;;;;5073209;28;20240;-85
2022/04/02 09:04:43;;;;;;;4.97;1.70;;;12.60;1.00;;;;;;5073762;28;20202;-84
2022/04/02 09:08:01;;;;;;;2.30;1.63;;;12.80;1.00;;;;;;5008649;28;20188;-85
2022/04/02 09:10:48;;;;;;;4.23;2.07;;;12.60;1.00;;;;;;5067374;28;20221;-80
2022/04/02 09:13:59;;;;;;;2.60;1.83;;;12.30;1.00;;;;;;5057816;28;20188;-84
2022/04/02 09:16:34;;;;;;;2.97;1.93;;;12.10;1.00;;;;;;5054538;28;20192;-82
2022/04/02 09:19:13;;;;;;;4.03;1.90;;;11.80;1.00;;;;;;5066697;28;20687;-82
2022/04/02 09:22:04;;;;;;;2.93;1.90;;;11.70;1.00;;;;;;5068569;28;20315;-84
2022/04/02 09:24:59;;;;;;;2.97;2.10;;;11.80;1.00;;;;;;5063044;28;20197;-84
2022/04/02 09:27:59;;;;;;;7.53;2.07;;;11.80;1.00;;;;;;5064313;28;20180;-84
2022/04/02 09:30:43;;;;;;;5.00;1.90;;;11.70;1.00;;;;;;5052918;28;20191;-84
2022/04/02 09:33:41;;;;;;;2.67;1.80;;;11.60;1.00;;;;;;5073037;28;20184;-83
2022/04/02 09:36:29;;;;;;;6.63;2.00;;;11.80;1.00;;;;;;5061824;28;20654;-84
2022/04/02 09:39:06;;;;;;;2.63;1.67;;;12.20;1.00;;;;;;5072862;28;20176;-84
2022/04/02 09:41:57;;;;;;;3.97;1.90;;;12.10;1.00;;;;;;5071658;28;20656;-84
2022/04/02 09:44:43;;;;;;;2.77;1.90;;;12.20;1.00;;;;;;5064207;28;20203;-84
2022/04/02 09:47:20;;;;;;;2.90;2.00;;;12.30;1.00;;;;;;5065410;28;20719;-84
2022/04/02 09:49:58;;;;;;;3.93;2.13;;;12.00;1.00;;;;;;5072777;28;20184;-84
2022/04/02 09:52:27;;;;;;;3.00;2.13;;;11.40;1.00;;;;;;5066306;28;20186;-84
2022/04/02 09:55:07;;;;;;;4.80;2.40;;;10.90;1.00;;;;;;5061854;28;20215;-84
2022/04/02 09:57:41;;;;;;;4.47;2.17;;;10.40;1.00;;;;;;5063020;28;20186;-84
2022/04/02 10:00:10;;;;;;;3.33;1.90;;;10.10;1.00;;;;;;5069301;28;20199;-85
2022/04/02 10:03:02;;;;;;;11.40;7.13;;;10.00;1.00;;;;;;5072073;28;20190;-83
2022/04/02 10:05:44;;;;;;;3.40;2.20;;;9.90;1.00;;;;;;5062954;28;20192;-84
2022/04/02 10:08:19;;;;;;;4.40;2.20;;;10.00;1.00;;;;;;5072389;28;20270;-84
2022/04/02 10:10:50;;;;;;;5.73;2.03;;;9.80;1.00;;;;;;5071712;28;20222;-83
2022/04/02 10:13:18;;;;;;;3.30;2.17;;;9.70;1.00;;;;;;5072177;28;20196;-84
2022/04/02 10:15:49;;;;;;;4.40;2.30;;;9.50;1.00;;;;;;5071225;28;20617;-85
2022/04/02 10:18:22;;;;;;;5.10;2.40;;;9.40;1.00;;;;;;5064212;28;20218;-85
2022/04/02 10:20:53;;;;;;;3.27;1.93;;;9.40;1.00;;;;;;5053260;28;20192;-81
2022/04/02 10:23:22;;;;;;;4.37;2.20;;;9.50;1.00;;;;;;5053431;28;20197;-80
2022/04/02 10:26:08;;;;;;;6.03;2.50;;;9.60;1.00;;;;;;5051763;28;20649;-82
2022/04/02 10:28:47;;;;;;;3.90;2.10;;;9.60;1.00;;;;;;5051948;28;20619;-83
2022/04/02 10:31:29;;;;;;;3.93;2.23;;;9.80;1.00;;;;;;5053107;28;20201;-83
2022/04/02 10:34:03;;;;;;;3.80;2.33;;;9.70;1.00;;;;;;5052016;28;20209;-83
2022/04/02 10:36:37;;;;;;;2.40;2.00;;;9.60;1.00;;;;;;5053023;28;20179;-82
2022/04/02 10:39:04;;;;;;;3.77;1.90;;;9.50;1.00;;;;;;5051852;28;20884;-82
2022/04/02 10:41:32;;;;;;;4.63;2.00;;;9.30;1.00;;;;;;5062490;28;20707;-83
2022/04/02 10:44:03;;;;;;;5.13;2.00;;;9.30;1.00;;;;;;5052053;28;20257;-83
2022/04/02 10:46:33;;;;;;;2.97;2.00;;;9.10;1.00;;;;;;5051911;28;20633;-82
2022/04/02 10:49:05;;;;;;;5.30;2.03;;;9.10;1.00;;;;;;5051751;28;20560;-83
2022/04/02 10:51:37;;;;;;;4.50;2.10;;;9.20;1.00;;;;;;5054595;28;20187;-82
2022/04/02 10:54:07;;;;;;;3.53;2.20;;;9.10;1.00;;;;;;5071854;28;20256;-81
2022/04/02 10:56:41;;;;;;;3.57;1.77;;;9.10;1.00;;;;;;5074031;28;20604;-83
2022/04/02 10:59:10;;;;;;;5.30;3.33;;;9.20;1.00;;;;;;5063953;28;20253;-83
2022/04/02 11:01:40;;;;;;;4.10;2.27;;;9.50;1.00;;;;;;5065055;28;20642;-84
2022/04/02 11:04:26;;;;;;;4.40;2.30;;;9.80;1.00;;;;;;5056892;28;20213;-83
2022/04/02 11:06:56;;;;;;;12.47;4.87;;;9.90;1.00;;;;;;5055350;28;20642;-83
2022/04/02 11:09:27;;;;;;;3.33;2.00;;;9.90;1.00;;;;;;5055228;28;20225;-83
2022/04/02 11:11:55;;;;;;;3.43;1.90;;;9.70;1.00;;;;;;5074125;28;20218;-84
2022/04/02 11:14:22;;;;;;;3.27;2.27;;;9.70;1.00;;;;;;5073775;28;20216;-84
2022/04/02 11:16:49;;;;;;;3.50;1.93;;;9.70;1.00;;;;;;5073212;28;20183;-83
2022/04/02 11:22:07;;;;;;;3.50;2.40;;;9.50;1.00;;;;;;5068550;28;20263;-84
2022/04/02 11:24:41;;;;;;;10.07;6.00;;;9.50;1.00;;;;;;5054943;28;20196;-82
2022/04/02 11:27:18;;;;;;;9.03;2.90;;;9.60;1.00;;;;;;5054866;28;20583;-83
2022/04/02 11:29:50;;;;;;;5.60;2.53;;;9.80;1.00;;;;;;5054895;28;20708;-82
2022/04/02 11:32:23;;;;;;;27.67;11.33;;;9.80;1.00;;;;;;5055101;28;20187;-83
2022/04/02 11:34:52;;;;;;;6.80;2.67;;;9.70;1.00;;;;;;5054748;28;20213;-83
2022/04/02 11:37:29;;;;;;;3.73;2.47;;;10.00;1.00;;;;;;5055159;28;20653;-82
2022/04/02 11:40:04;;;;;;;4.47;2.00;;;9.90;1.00;;;;;;5055286;28;20196;-83
2022/04/02 11:42:36;;;;;;;8.87;4.10;;;9.70;1.00;;;;;;5066670;28;20254;-82
2022/04/02 11:45:08;;;;;;;6.87;4.60;;;9.50;1.00;;;;;;5068489;28;20605;-82
2022/04/02 11:47:38;;;;;;;5.97;3.53;;;9.30;1.00;;;;;;5073674;28;20275;-83
2022/04/02 11:50:08;;;;;;;5.43;3.40;;;9.30;1.00;;;;;;5077076;28;20591;-83
2022/04/02 11:52:54;;;;;;;4.70;2.00;;;9.30;1.00;;;;;;5075041;28;20645;-81
2022/04/02 11:55:22;;;;;;;4.13;2.30;;;9.30;1.00;;;;;;5069059;28;20243;-82
2022/04/02 11:58:08;;;;;;;2.93;1.60;;;9.40;1.00;;;;;;5075768;28;20256;-86
2022/04/02 12:00:37;;;;;;;8.67;4.90;;;9.40;1.00;;;;;;5055260;28;20347;-87
2022/04/02 12:03:05;;;;;;;8.60;5.70;;;9.50;1.00;;;;;;5055438;28;20196;-85
2022/04/02 12:05:42;;;;;;;4.97;2.07;;;9.60;1.00;;;;;;5054869;28;20564;-84
2022/04/02 12:08:11;;;;;;;9.50;6.37;;;9.70;1.00;;;;;;5062436;28;20241;-85
2022/04/02 12:10:46;;;;;;;4.30;2.50;;;9.70;1.00;;;;;;5075657;28;20721;-84
2022/04/02 12:13:13;;;;;;;23.23;11.33;;;9.70;1.00;;;;;;5075775;28;20185;-86
2022/04/02 12:15:41;;;;;;;7.57;4.53;;;9.70;1.00;;;;;;5075563;28;20243;-84
2022/04/02 12:18:09;;;;;;;8.07;3.80;;;9.60;1.00;;;;;;5075136;28;20238;-86
2022/04/02 12:20:38;;;;;;;4.23;2.13;;;9.50;1.00;;;;;;5075007;28;20707;-87
2022/04/02 12:23:14;;;;;;;6.20;2.40;;;9.30;1.00;;;;;;5075394;28;20208;-86
2022/04/02 12:25:44;;;;;;;9.80;2.97;;;9.10;1.00;;;;;;5075545;28;20192;-85
2022/04/02 12:28:17;;;;;;;22.97;10.93;;;9.20;1.00;;;;;;5074877;28;20532;-86
2022/04/02 12:30:48;;;;;;;9.20;5.00;;;9.20;1.00;;;;;;5075051;28;20196;-87
2022/04/02 12:33:18;;;;;;;9.77;2.03;;;9.40;1.00;;;;;;5075047;28;20212;-86
2022/04/02 12:35:47;;;;;;;4.67;2.10;;;9.50;1.00;;;;;;5074743;28;20223;-83
2022/04/02 12:38:28;;;;;;;5.47;2.17;;;9.60;1.00;;;;;;5074924;28;20209;-84
2022/04/02 12:40:57;;;;;;;3.33;1.80;;;9.50;1.00;;;;;;5074717;28;20234;-84
2022/04/02 12:43:29;;;;;;;3.73;2.07;;;9.30;1.00;;;;;;5074265;28;20683;-84
2022/04/02 12:46:00;;;;;;;10.67;2.33;;;9.20;1.00;;;;;;5074732;28;20196;-82
2022/04/02 12:48:40;;;;;;;3.80;1.97;;;9.10;1.00;;;;;;5074219;28;20194;-84
2022/04/02 12:51:12;;;;;;;6.83;2.10;;;9.00;1.00;;;;;;5074551;28;20183;-86
2022/04/02 12:53:42;;;;;;;4.63;1.73;;;9.00;1.00;;;;;;5074715;28;20185;-82
2022/04/02 12:56:10;;;;;;;4.93;1.77;;;9.00;1.00;;;;;;5074414;28;20220;-84
2022/04/02 12:58:39;;;;;;;3.43;2.00;;;9.00;1.00;;;;;;5074272;28;20188;-82
2022/04/02 13:01:12;;;;;;;3.87;1.90;;;9.10;1.00;;;;;;5073992;28;20241;-85
2022/04/02 13:03:44;;;;;;;4.67;1.90;;;9.20;1.00;;;;;;5073414;28;20204;-87
2022/04/02 13:06:20;;;;;;;2.53;1.90;;;9.20;1.00;;;;;;5071397;28;20193;-82
2022/04/02 13:09:04;;;;;;;4.33;2.30;;;9.20;1.00;;;;;;5069937;28;20275;-83
2022/04/02 13:11:43;;;;;;;9.20;2.83;;;9.20;1.00;;;;;;5070953;28;20191;-82
2022/04/02 13:14:18;;;;;;;5.00;1.63;;;9.30;1.00;;;;;;5071488;28;20193;-82
2022/04/02 13:16:47;;;;;;;6.03;2.10;;;9.40;1.00;;;;;;5071653;28;20204;-85
2022/04/02 13:22:05;;;;;;;6.93;2.87;;;9.40;1.00;;;;;;5071526;28;20188;-84
2022/04/02 13:24:52;;;;;;;7.33;2.17;;;9.30;1.00;;;;;;5052765;28;20195;-84
2022/04/02 13:27:59;;;;;;;4.80;2.00;;;9.20;1.00;;;;;;5052389;28;20272;-83